createdAt,value
2019-03-23T00:00:18.539Z,16.80
2019-03-23T00:02:49.817Z,16.83
2019-03-23T00:05:20.869Z,17.60
2019-03-23T00:07:51.947Z,15.93
2019-03-23T00:10:23.007Z,15.80
2019-03-23T00:12:54.000Z,15.10
2019-03-23T00:15:25.029Z,16.03
2019-03-23T00:17:56.076Z,17.30
2019-03-23T00:20:27.089Z,16.57
2019-03-23T00:22:58.175Z,16.23
2019-03-23T00:25:29.155Z,16.40
2019-03-23T00:28:00.482Z,16.87
2019-03-23T00:30:31.617Z,16.17
2019-03-23T00:33:02.964Z,15.73
2019-03-23T00:35:34.333Z,16.50
2019-03-23T00:38:05.348Z,15.97
2019-03-23T00:40:36.339Z,16.40
2019-03-23T00:43:07.403Z,16.50
2019-03-23T00:45:38.454Z,17.07
2019-03-23T00:48:09.732Z,15.60
2019-03-23T00:50:40.749Z,15.63
2019-03-23T00:53:11.855Z,16.10
2019-03-23T00:55:42.896Z,15.77
2019-03-23T00:58:14.306Z,15.20
2019-03-23T01:00:45.308Z,15.50
2019-03-23T01:03:16.417Z,16.60
2019-03-23T01:05:47.550Z,16.23
2019-03-23T01:08:18.604Z,15.53
2019-03-23T01:10:49.579Z,16.13
2019-03-23T01:13:21.690Z,16.27
2019-03-23T01:15:52.672Z,15.20
2019-03-23T01:18:23.917Z,14.90
2019-03-23T01:20:54.934Z,15.57
2019-03-23T01:23:26.304Z,15.50
2019-03-23T01:25:57.315Z,15.27
2019-03-23T01:28:29.514Z,15.47
2019-03-23T01:31:00.505Z,16.40
2019-03-23T01:33:32.024Z,16.03
2019-03-23T01:36:03.031Z,16.13
2019-03-23T01:38:34.213Z,15.83
2019-03-23T01:41:05.262Z,15.13
2019-03-23T01:43:42.321Z,14.83
2019-03-23T01:46:28.919Z,16.80
2019-03-23T01:49:04.207Z,15.13
2019-03-23T01:51:46.420Z,15.90
2019-03-23T01:54:17.886Z,16.40
2019-03-23T01:56:49.084Z,16.10
2019-03-23T01:59:20.132Z,14.97
2019-03-23T02:01:51.165Z,14.80
2019-03-23T02:04:22.333Z,15.90
2019-03-23T02:06:53.394Z,15.57
2019-03-23T02:09:24.640Z,14.90
2019-03-23T02:11:55.716Z,15.67
2019-03-23T02:14:26.891Z,14.67
2019-03-23T02:16:57.893Z,15.17
2019-03-23T02:19:28.997Z,15.20
2019-03-23T02:22:00.089Z,14.50
2019-03-23T02:24:31.148Z,16.10
2019-03-23T02:27:02.176Z,15.57
2019-03-23T02:29:33.426Z,16.13
2019-03-23T02:32:04.531Z,16.20
2019-03-23T02:34:35.609Z,16.30
2019-03-23T02:37:06.607Z,14.80
2019-03-23T02:39:38.199Z,14.50
2019-03-23T02:42:09.277Z,14.90
2019-03-23T02:44:40.706Z,15.13
2019-03-23T02:47:12.243Z,16.07
2019-03-23T02:49:43.322Z,14.80
2019-03-23T02:52:14.357Z,15.07
2019-03-23T02:54:45.572Z,16.93
2019-03-23T02:57:16.595Z,16.70
2019-03-23T02:59:47.646Z,16.43
2019-03-23T03:02:18.725Z,15.50
2019-03-23T03:04:50.348Z,14.67
2019-03-23T03:07:21.392Z,14.53
2019-03-23T03:09:52.462Z,13.57
2019-03-23T03:12:23.696Z,14.37
2019-03-23T03:14:55.367Z,14.27
2019-03-23T03:17:26.539Z,14.00
2019-03-23T03:19:57.624Z,14.67
2019-03-23T03:22:28.789Z,14.00
2019-03-23T03:24:59.935Z,13.80
2019-03-23T03:27:31.437Z,13.80
2019-03-23T03:30:02.618Z,14.77
2019-03-23T03:32:34.933Z,14.13
2019-03-23T03:35:06.471Z,15.10
2019-03-23T03:37:37.716Z,14.63
2019-03-23T03:40:09.263Z,14.73
2019-03-23T03:42:40.634Z,14.53
2019-03-23T03:45:15.291Z,15.00
2019-03-23T03:47:46.669Z,14.70
2019-03-23T03:50:17.701Z,13.93
2019-03-23T03:52:48.779Z,14.83
2019-03-23T03:55:20.844Z,14.40
2019-03-23T03:57:51.959Z,15.33
2019-03-23T04:00:23.013Z,14.20
2019-03-23T04:02:54.099Z,13.63
2019-03-23T04:05:25.313Z,13.93
2019-03-23T04:08:09.894Z,13.40
2019-03-23T04:10:29.196Z,14.33
2019-03-23T04:13:00.320Z,14.63
2019-03-23T04:15:31.361Z,13.57
2019-03-23T04:18:02.358Z,14.90
2019-03-23T04:20:33.495Z,14.33
2019-03-23T04:23:04.822Z,14.47
2019-03-23T04:25:35.864Z,14.13
2019-03-23T04:28:06.924Z,12.80
2019-03-23T04:30:37.952Z,13.50
2019-03-23T04:33:09.125Z,13.27
2019-03-23T04:35:40.148Z,14.40
2019-03-23T04:38:22.161Z,14.40
2019-03-23T04:40:44.557Z,13.77
2019-03-23T04:43:15.532Z,14.73
2019-03-23T04:45:46.608Z,14.27
2019-03-23T04:48:17.877Z,13.97
2019-03-23T04:50:48.913Z,15.03
2019-03-23T04:53:19.915Z,13.33
2019-03-23T04:55:50.921Z,14.63
2019-03-23T04:58:21.940Z,13.73
2019-03-23T05:00:52.999Z,16.00
2019-03-23T05:03:24.023Z,14.23
2019-03-23T05:05:55.053Z,15.00
2019-03-23T05:08:33.427Z,14.70
2019-03-23T05:10:58.778Z,14.07
2019-03-23T05:13:29.798Z,14.00
2019-03-23T05:16:00.800Z,15.20
2019-03-23T05:18:31.797Z,14.93
2019-03-23T05:21:02.860Z,14.80
2019-03-23T05:23:33.934Z,13.90
2019-03-23T05:26:04.959Z,13.20
2019-03-23T05:28:35.998Z,14.63
2019-03-23T05:31:07.220Z,14.53
2019-03-23T05:33:38.277Z,14.13
2019-03-23T05:36:09.429Z,13.37
2019-03-23T05:38:44.718Z,13.80
2019-03-23T05:41:13.182Z,13.50
2019-03-23T05:43:44.143Z,14.50
2019-03-23T05:46:15.936Z,14.53
2019-03-23T05:48:46.958Z,14.83
2019-03-23T05:51:18.067Z,14.17
2019-03-23T05:53:49.232Z,14.67
2019-03-23T05:56:20.533Z,13.73
2019-03-23T05:58:51.537Z,14.50
2019-03-23T06:01:22.593Z,14.57
2019-03-23T06:03:54.028Z,14.10
2019-03-23T06:06:25.163Z,14.17
2019-03-23T06:08:56.568Z,14.23
2019-03-23T06:11:27.676Z,15.30
2019-03-23T06:13:58.728Z,14.17
2019-03-23T06:16:29.777Z,15.20
2019-03-23T06:19:01.215Z,13.87
2019-03-23T06:21:32.818Z,13.73
2019-03-23T06:24:03.879Z,13.87
2019-03-23T06:26:36.294Z,14.40
2019-03-23T06:29:07.789Z,14.07
2019-03-23T06:31:38.829Z,13.93
2019-03-23T06:34:09.880Z,15.30
2019-03-23T06:36:40.884Z,13.93
2019-03-23T06:39:11.997Z,12.47
2019-03-23T06:41:43.004Z,11.93
2019-03-23T06:44:14.005Z,12.03
2019-03-23T06:46:52.962Z,12.40
2019-03-23T06:49:24.210Z,12.27
2019-03-23T06:51:55.301Z,12.70
2019-03-23T06:54:28.395Z,12.53
2019-03-23T06:57:01.070Z,12.13
2019-03-23T06:59:33.636Z,12.53
2019-03-23T07:02:04.677Z,13.17
2019-03-23T07:04:35.994Z,13.10
2019-03-23T07:07:07.289Z,14.60
2019-03-23T07:09:38.363Z,15.00
2019-03-23T07:12:09.487Z,15.83
2019-03-23T07:14:40.493Z,16.00
2019-03-23T07:17:11.559Z,15.23
2019-03-23T07:19:42.785Z,13.87
2019-03-23T07:22:14.130Z,14.00
2019-03-23T07:24:45.134Z,13.40
2019-03-23T07:27:16.397Z,14.07
2019-03-23T07:29:47.537Z,13.00
2019-03-23T07:32:18.829Z,13.27
2019-03-23T07:34:50.137Z,13.83
2019-03-23T07:37:21.171Z,13.77
2019-03-23T07:39:52.573Z,13.53
2019-03-23T07:42:23.619Z,14.00
2019-03-23T07:44:55.067Z,12.97
2019-03-23T07:47:26.170Z,14.33
2019-03-23T07:49:57.203Z,13.83
2019-03-23T07:52:28.664Z,13.73
2019-03-23T07:55:05.841Z,13.53
2019-03-23T07:57:36.922Z,13.70
2019-03-23T08:00:09.012Z,12.90
2019-03-23T08:02:40.375Z,13.27
2019-03-23T08:05:11.588Z,13.60
2019-03-23T08:07:42.654Z,13.53
2019-03-23T08:10:26.013Z,14.43
2019-03-23T08:42:53.563Z,11.87
2019-03-23T08:45:24.621Z,12.50
2019-03-23T08:47:55.670Z,12.17
2019-03-23T08:50:26.978Z,11.23
2019-03-23T08:52:58.011Z,12.87
2019-03-23T08:55:29.265Z,12.17
2019-03-23T08:58:00.292Z,11.60
2019-03-23T09:00:31.346Z,12.73
2019-03-23T09:03:03.750Z,12.73
2019-03-23T09:05:35.261Z,12.17
2019-03-23T09:08:06.321Z,13.95
2019-03-23T09:10:43.023Z,13.35
2019-03-23T09:13:14.471Z,11.23
2019-03-23T09:15:45.738Z,11.80
2019-03-23T09:18:17.228Z,11.40
2019-03-23T09:20:48.349Z,11.57
2019-03-23T09:23:19.492Z,10.93
2019-03-23T09:25:50.923Z,12.77
2019-03-23T09:28:21.936Z,12.93
2019-03-23T09:30:54.224Z,12.77
2019-03-23T09:33:25.703Z,12.13
2019-03-23T09:35:57.260Z,12.63
2019-03-23T09:38:28.611Z,12.70
2019-03-23T09:41:00.194Z,13.40
2019-03-23T09:43:31.314Z,13.50
2019-03-23T09:46:02.585Z,12.83
2019-03-23T09:48:33.716Z,12.80
2019-03-23T09:51:04.772Z,12.83
2019-03-23T09:53:35.806Z,12.53
2019-03-23T09:56:06.986Z,13.07
2019-03-23T09:58:38.455Z,13.60
2019-03-23T10:01:09.496Z,14.47
2019-03-23T10:03:42.790Z,13.93
2019-03-23T10:06:13.229Z,13.80
2019-03-23T10:08:46.333Z,13.83
2019-03-23T10:11:17.205Z,13.53
2019-03-23T10:13:48.585Z,14.13
2019-03-23T10:16:19.609Z,14.90
2019-03-23T10:18:51.809Z,12.80
2019-03-23T10:21:22.860Z,14.03
2019-03-23T10:23:54.663Z,14.33
2019-03-23T10:26:26.280Z,14.10
2019-03-23T10:28:57.366Z,13.97
2019-03-23T10:31:28.810Z,14.63
2019-03-23T10:34:00.225Z,15.27
2019-03-23T10:36:32.550Z,14.80
2019-03-23T10:39:05.886Z,17.13
2019-03-23T10:41:36.992Z,16.30
2019-03-23T10:44:08.029Z,16.73
2019-03-23T10:46:39.163Z,17.77
2019-03-23T10:49:10.242Z,17.80
2019-03-23T10:51:41.713Z,17.77
2019-03-23T10:54:12.884Z,17.97
2019-03-23T10:56:43.993Z,18.20
2019-03-23T10:59:15.489Z,18.43
2019-03-23T11:01:46.731Z,17.30
2019-03-23T11:04:17.841Z,18.50
2019-03-23T11:06:49.103Z,18.37
2019-03-23T11:09:20.181Z,19.27
2019-03-23T11:11:51.296Z,18.90
2019-03-23T11:14:22.306Z,19.43
2019-03-23T11:16:53.344Z,19.37
2019-03-23T11:19:24.464Z,20.10
2019-03-23T11:21:56.094Z,19.83
2019-03-23T11:24:27.528Z,20.13
2019-03-23T11:26:58.902Z,20.10
2019-03-23T11:29:30.623Z,21.53
2019-03-23T11:32:02.133Z,21.73
2019-03-23T11:34:33.521Z,21.77
2019-03-23T11:37:05.099Z,22.83
2019-03-23T11:39:36.161Z,20.80
2019-03-23T11:42:07.265Z,21.53
2019-03-23T11:44:38.397Z,22.27
2019-03-23T11:47:09.553Z,21.87
2019-03-23T11:49:40.576Z,22.30
2019-03-23T11:52:11.604Z,21.63
2019-03-23T11:54:42.652Z,21.93
2019-03-23T11:57:13.791Z,22.53
2019-03-23T11:59:45.183Z,22.63
2019-03-23T12:02:16.300Z,23.73
2019-03-23T12:04:47.506Z,24.57
2019-03-23T12:07:21.547Z,23.23
2019-03-23T12:09:52.585Z,24.67
2019-03-23T12:12:23.888Z,23.87
2019-03-23T12:14:55.241Z,23.60
2019-03-23T12:17:26.273Z,23.20
2019-03-23T12:19:57.740Z,24.87
2019-03-23T12:22:29.799Z,24.80
2019-03-23T12:25:00.885Z,26.55
2019-03-23T12:27:32.220Z,24.90
2019-03-23T12:30:07.579Z,26.23
2019-03-23T12:32:42.788Z,24.32
2019-03-23T12:35:13.873Z,24.37
2019-03-23T12:37:45.281Z,25.25
2019-03-23T12:40:16.465Z,25.55
2019-03-23T12:42:47.808Z,26.57
2019-03-23T12:45:18.852Z,24.77
2019-03-23T12:47:49.946Z,25.40
2019-03-23T12:50:21.069Z,23.05
2019-03-23T12:52:52.144Z,25.48
2019-03-23T12:55:23.231Z,24.25
2019-03-23T12:57:54.365Z,24.15
2019-03-23T13:00:26.370Z,20.65
2019-03-23T13:02:58.011Z,23.32
2019-03-23T13:05:29.831Z,25.32
2019-03-23T13:08:01.742Z,25.50
2019-03-23T13:10:33.156Z,24.80
2019-03-23T13:13:04.525Z,25.08
2019-03-23T13:15:35.606Z,25.30
2019-03-23T13:18:06.885Z,24.00
2019-03-23T13:20:38.279Z,21.52
2019-03-23T13:23:09.316Z,22.63
2019-03-23T13:25:40.501Z,20.88
2019-03-23T13:28:11.540Z,19.92
2019-03-23T13:30:42.566Z,20.45
2019-03-23T13:33:14.198Z,20.23
2019-03-23T13:35:45.670Z,22.13
2019-03-23T13:38:18.488Z,22.67
2019-03-23T13:40:49.775Z,20.40
2019-03-23T13:43:21.107Z,18.98
2019-03-23T13:45:52.230Z,20.57
2019-03-23T13:48:23.600Z,19.67
2019-03-23T13:50:54.610Z,20.88
2019-03-23T13:53:25.649Z,20.62
2019-03-23T13:55:56.678Z,20.15
2019-03-23T13:58:27.733Z,19.82
2019-03-23T14:00:58.828Z,20.20
2019-03-23T14:03:30.013Z,19.42
2019-03-23T14:06:01.613Z,19.92
2019-03-23T14:08:32.721Z,19.42
2019-03-23T14:11:03.961Z,18.82
2019-03-23T14:13:35.254Z,19.00
2019-03-23T14:16:06.265Z,19.55
2019-03-23T14:18:37.447Z,17.32
2019-03-23T14:21:08.552Z,19.62
2019-03-23T14:23:39.569Z,16.52
2019-03-23T14:26:10.593Z,16.55
2019-03-23T14:28:42.024Z,15.40
2019-03-23T14:31:13.331Z,17.10
2019-03-23T14:33:44.334Z,13.38
2019-03-23T14:36:15.769Z,12.40
2019-03-23T14:38:47.143Z,13.77
2019-03-23T14:41:18.226Z,12.73
2019-03-23T14:43:49.437Z,13.43
2019-03-23T14:46:20.735Z,13.60
2019-03-23T14:48:51.830Z,14.10
2019-03-23T14:51:22.933Z,13.13
2019-03-23T14:53:53.961Z,13.57
2019-03-23T14:56:25.064Z,13.83
2019-03-23T14:58:56.283Z,13.15
2019-03-23T15:01:28.786Z,13.25
2019-03-23T15:04:00.107Z,13.80
2019-03-23T15:06:33.408Z,13.22
2019-03-23T15:09:05.441Z,13.85
2019-03-23T15:11:36.626Z,13.05
2019-03-23T15:14:07.804Z,15.30
2019-03-23T15:16:38.809Z,13.88
2019-03-23T15:19:09.830Z,14.45
2019-03-23T15:21:40.919Z,14.98
2019-03-23T15:24:12.090Z,14.20
2019-03-23T15:26:43.224Z,11.95
2019-03-23T15:29:14.549Z,13.30
2019-03-23T15:31:45.601Z,13.45
2019-03-23T15:34:16.597Z,12.90
2019-03-23T15:36:47.908Z,12.82
2019-03-23T15:39:18.916Z,12.28
2019-03-23T15:41:49.933Z,11.25
2019-03-23T15:44:20.996Z,11.30
2019-03-23T15:46:52.012Z,11.40
2019-03-23T15:49:23.107Z,11.20
2019-03-23T15:51:54.116Z,10.63
2019-03-23T15:54:25.402Z,11.27
2019-03-23T15:56:56.784Z,10.63
2019-03-23T15:59:27.811Z,11.60
2019-03-23T16:01:58.914Z,10.63
2019-03-23T16:04:29.988Z,11.30
2019-03-23T16:07:01.083Z,11.63
2019-03-23T16:09:32.777Z,11.83
2019-03-23T16:12:04.108Z,11.57
2019-03-23T16:14:35.485Z,10.80
2019-03-23T16:17:06.544Z,10.57
2019-03-23T16:19:37.652Z,10.67
2019-03-23T16:22:08.712Z,10.60
2019-03-23T16:24:39.846Z,22.33
2019-03-23T16:27:10.857Z,14.50
2019-03-23T16:29:41.857Z,15.60
2019-03-23T16:32:12.917Z,14.10
2019-03-23T16:34:44.009Z,16.20
2019-03-23T16:37:15.099Z,17.27
2019-03-23T16:39:46.124Z,13.57
2019-03-23T16:42:17.103Z,17.57
2019-03-23T16:44:48.233Z,14.73
2019-03-23T16:47:19.259Z,12.63
2019-03-23T16:49:51.641Z,11.83
2019-03-23T16:52:22.737Z,19.70
2019-03-23T16:54:54.057Z,14.00
2019-03-23T16:57:25.219Z,10.37
2019-03-23T16:59:58.477Z,11.43
2019-03-23T17:02:30.328Z,14.57
2019-03-23T17:05:02.644Z,14.13
2019-03-23T17:07:33.704Z,12.63
2019-03-23T17:10:05.989Z,13.83
2019-03-23T17:12:36.995Z,12.73
2019-03-23T17:15:09.202Z,15.07
2019-03-23T17:17:40.209Z,17.50
2019-03-23T17:20:11.542Z,19.03
2019-03-23T17:22:42.592Z,17.23
2019-03-23T17:25:13.609Z,16.80
2019-03-23T17:27:44.645Z,15.80
2019-03-23T17:30:15.735Z,14.63
2019-03-23T17:32:46.728Z,14.30
2019-03-23T17:35:17.753Z,14.20
2019-03-23T17:37:48.822Z,12.57
2019-03-23T17:40:19.891Z,13.70
2019-03-23T17:42:50.947Z,12.47
2019-03-23T17:45:22.041Z,10.90
2019-03-23T17:47:53.255Z,11.07
2019-03-23T17:50:24.360Z,11.37
2019-03-23T17:52:55.465Z,11.50
2019-03-23T17:55:26.929Z,11.47
2019-03-23T17:57:58.170Z,11.77
2019-03-23T18:00:29.957Z,11.17
2019-03-23T18:03:01.324Z,12.43
2019-03-23T18:05:32.437Z,12.37
2019-03-23T18:08:03.431Z,12.33
2019-03-23T18:10:35.121Z,11.50
2019-03-23T18:13:15.966Z,11.97
2019-03-23T18:15:39.129Z,11.50
2019-03-23T18:18:10.169Z,11.00
2019-03-23T18:20:41.672Z,12.23
2019-03-23T18:23:12.681Z,11.83
